KLAR Airport (Laramie Rgnl) Information

FAA: LAR - ICAO: KLAR

KLAR Airport Location

State Wyoming
County Albany
City Laramie
KLAR Airport is 3 miles west of Laramie, WY.
Latitude 41-18-43.4000N
Longitude 105-40-30.0000W
Elevation 7,283ft

KLAR Airport METARs

METAR KLAR 182153Z AUTO 13010G26KT 10SM OVC110 16/M07 A2986 RMK AO2 PK WND 14026/2146 WSHFT 2052 SLP031 T01611072
Altimeter 29.86"
Temperature 16.1°C (61.0°F)
Wind 130° at 10KT with gusts to 26KT
Clouds overcast at 11,000ft
Visibility 10.0mi
Time observed: 2021-10-18T21:53:00Z

KLAR Airport Details

Status Operational
Activation October 1938
Ownership Public
Usage Public
Chart CHEYENNE
ATC on-site No
Beacon schedule sunset-sunrise
Beacon color clear green

KLAR Airport Contacts

Owner LARAMIE REGIONAL AIRPORT BOARD
Owner address 555 GENERAL BREES RD, LARAMIE, WY 82070
Owner phone 307-742-4164
Manager MIKE LASALLE
Manager address PO BOX 756, EVANSTON, WY 82931
Manager phone 307-789-2256

KLAR Airport (Laramie Rgnl) Radio Frequencies

KLAR (Airport) Radio Frequencies

UNICOM 123.05
Common traffic advisory frequency (CTAF) 123.05